sensor_id;sensor_type;location;lat;lon;timestamp;pressure;altitude;pressure_sealevel;temperature;humidity
73952;BME280;62304;47.662;18.324;2022-08-19T00:00:22;99650.09;;;28.37;40.77
73952;BME280;62304;47.662;18.324;2022-08-19T00:03:28;99651.34;;;28.36;40.71
73952;BME280;62304;47.662;18.324;2022-08-19T00:06:31;99647.69;;;28.36;40.75
73952;BME280;62304;47.662;18.324;2022-08-19T00:09:34;99643.53;;;28.31;40.87
73952;BME280;62304;47.662;18.324;2022-08-19T00:12:37;99627.72;;;28.30;40.85
73952;BME280;62304;47.662;18.324;2022-08-19T00:15:48;99637.28;;;28.27;40.91
73952;BME280;62304;47.662;18.324;2022-08-19T00:18:51;99638.06;;;28.28;41.02
73952;BME280;62304;47.662;18.324;2022-08-19T00:21:54;99641.66;;;28.23;41.09
73952;BME280;62304;47.662;18.324;2022-08-19T00:24:59;99651.75;;;28.24;41.04
73952;BME280;62304;47.662;18.324;2022-08-19T00:28:03;99653.88;;;28.29;41.02
73952;BME280;62304;47.662;18.324;2022-08-19T00:31:09;99646.88;;;28.30;41.04
73952;BME280;62304;47.662;18.324;2022-08-19T00:34:13;99641.91;;;28.25;41.25
73952;BME280;62304;47.662;18.324;2022-08-19T00:37:16;99632.81;;;28.21;41.30
73952;BME280;62304;47.662;18.324;2022-08-19T00:40:20;99621.94;;;28.19;41.39
73952;BME280;62304;47.662;18.324;2022-08-19T00:43:25;99607.09;;;28.15;41.53
73952;BME280;62304;47.662;18.324;2022-08-19T00:46:29;99615.09;;;28.11;41.49
73952;BME280;62304;47.662;18.324;2022-08-19T00:52:39;99617.94;;;28.06;41.74
73952;BME280;62304;47.662;18.324;2022-08-19T00:55:46;99605.22;;;28.07;41.69
73952;BME280;62304;47.662;18.324;2022-08-19T00:58:55;99612.22;;;28.06;41.69
73952;BME280;62304;47.662;18.324;2022-08-19T01:01:58;99594.56;;;28.02;41.72
73952;BME280;62304;47.662;18.324;2022-08-19T01:05:05;99600.31;;;28.07;41.43
73952;BME280;62304;47.662;18.324;2022-08-19T01:08:09;99585.59;;;28.14;41.24
73952;BME280;62304;47.662;18.324;2022-08-19T01:11:13;99599.06;;;28.14;41.16
73952;BME280;62304;47.662;18.324;2022-08-19T01:14:16;99588.75;;;28.22;40.87
73952;BME280;62304;47.662;18.324;2022-08-19T01:17:20;99582.25;;;28.21;40.91
73952;BME280;62304;47.662;18.324;2022-08-19T01:20:23;99586.41;;;28.20;40.91
73952;BME280;62304;47.662;18.324;2022-08-19T01:23:27;99575.50;;;28.19;40.83
73952;BME280;62304;47.662;18.324;2022-08-19T01:26:46;99570.84;;;28.21;40.69
73952;BME280;62304;47.662;18.324;2022-08-19T01:29:50;99556.84;;;28.23;40.56
73952;BME280;62304;47.662;18.324;2022-08-19T01:32:54;99564.91;;;28.25;40.53
73952;BME280;62304;47.662;18.324;2022-08-19T01:36:25;99566.75;;;28.28;40.47
73952;BME280;62304;47.662;18.324;2022-08-19T01:39:29;99565.94;;;28.22;40.62
73952;BME280;62304;47.662;18.324;2022-08-19T01:42:32;99563.31;;;28.18;40.57
73952;BME280;62304;47.662;18.324;2022-08-19T01:45:35;99562.03;;;28.19;40.56
73952;BME280;62304;47.662;18.324;2022-08-19T01:48:41;99557.38;;;28.22;40.42
73952;BME280;62304;47.662;18.324;2022-08-19T01:51:44;99556.84;;;28.23;40.35
73952;BME280;62304;47.662;18.324;2022-08-19T01:54:48;99547.25;;;28.21;40.40
73952;BME280;62304;47.662;18.324;2022-08-19T01:57:55;99549.56;;;28.17;40.58
73952;BME280;62304;47.662;18.324;2022-08-19T02:01:02;99551.06;;;28.12;40.61
73952;BME280;62304;47.662;18.324;2022-08-19T02:04:05;99562.28;;;28.16;40.46
73952;BME280;62304;47.662;18.324;2022-08-19T02:07:08;99539.91;;;28.09;40.63
73952;BME280;62304;47.662;18.324;2022-08-19T02:10:18;99531.09;;;28.07;40.62
73952;BME280;62304;47.662;18.324;2022-08-19T02:13:23;99542.75;;;28.09;40.43
73952;BME280;62304;47.662;18.324;2022-08-19T02:16:28;99554.97;;;28.09;40.53
73952;BME280;62304;47.662;18.324;2022-08-19T02:19:31;99546.91;;;28.08;40.59
73952;BME280;62304;47.662;18.324;2022-08-19T02:22:41;99559.09;;;28.08;40.57
73952;BME280;62304;47.662;18.324;2022-08-19T02:25:47;99576.47;;;28.05;40.73
73952;BME280;62304;47.662;18.324;2022-08-19T02:28:50;99577.97;;;28.00;40.88
73952;BME280;62304;47.662;18.324;2022-08-19T02:31:53;99576.88;;;27.92;41.04
73952;BME280;62304;47.662;18.324;2022-08-19T02:34:56;99577.09;;;27.89;41.16
73952;BME280;62304;47.662;18.324;2022-08-19T02:37:59;99573.97;;;27.87;41.29
73952;BME280;62304;47.662;18.324;2022-08-19T02:41:24;99571.59;;;27.80;41.51
73952;BME280;62304;47.662;18.324;2022-08-19T02:44:28;99567.06;;;27.68;41.92
73952;BME280;62304;47.662;18.324;2022-08-19T02:47:33;99575.34;;;27.66;42.02
73952;BME280;62304;47.662;18.324;2022-08-19T02:50:41;99568.56;;;27.63;42.05
73952;BME280;62304;47.662;18.324;2022-08-19T02:53:55;99575.00;;;27.58;42.26
73952;BME280;62304;47.662;18.324;2022-08-19T02:56:58;99568.97;;;27.51;42.36
73952;BME280;62304;47.662;18.324;2022-08-19T03:00:06;99573.31;;;27.46;42.48
73952;BME280;62304;47.662;18.324;2022-08-19T03:03:11;99583.69;;;27.44;42.62
73952;BME280;62304;47.662;18.324;2022-08-19T03:06:15;99590.88;;;27.39;42.70
73952;BME280;62304;47.662;18.324;2022-08-19T03:09:19;99584.59;;;27.35;42.83
73952;BME280;62304;47.662;18.324;2022-08-19T03:12:22;99596.22;;;27.32;42.96
73952;BME280;62304;47.662;18.324;2022-08-19T03:15:26;99599.78;;;27.27;43.08
73952;BME280;62304;47.662;18.324;2022-08-19T03:18:29;99593.81;;;27.25;43.19
73952;BME280;62304;47.662;18.324;2022-08-19T03:21:33;99592.50;;;27.20;43.26
73952;BME280;62304;47.662;18.324;2022-08-19T03:24:37;99605.94;;;27.20;43.13
73952;BME280;62304;47.662;18.324;2022-08-19T03:27:40;99600.00;;;27.23;43.14
73952;BME280;62304;47.662;18.324;2022-08-19T03:30:58;99599.78;;;27.27;43.13
73952;BME280;62304;47.662;18.324;2022-08-19T03:34:02;99601.25;;;27.17;43.36
73952;BME280;62304;47.662;18.324;2022-08-19T03:37:11;99610.06;;;27.19;43.17
73952;BME280;62304;47.662;18.324;2022-08-19T03:40:17;99623.88;;;27.26;43.00
73952;BME280;62304;47.662;18.324;2022-08-19T03:43:21;99632.91;;;27.24;43.08
73952;BME280;62304;47.662;18.324;2022-08-19T03:46:29;99634.19;;;27.23;43.10
73952;BME280;62304;47.662;18.324;2022-08-19T03:49:33;99623.50;;;27.18;43.21
73952;BME280;62304;47.662;18.324;2022-08-19T03:52:38;99617.75;;;27.13;43.45
73952;BME280;62304;47.662;18.324;2022-08-19T03:55:47;99614.91;;;27.13;43.40
73952;BME280;62304;47.662;18.324;2022-08-19T03:58:49;99617.88;;;27.04;43.66
73952;BME280;62304;47.662;18.324;2022-08-19T04:01:55;99609.56;;;27.00;43.72
73952;BME280;62304;47.662;18.324;2022-08-19T04:04:58;99613.84;;;26.90;43.94
73952;BME280;62304;47.662;18.324;2022-08-19T04:08:01;99606.31;;;26.87;43.99
73952;BME280;62304;47.662;18.324;2022-08-19T04:11:27;99622.31;;;26.85;44.19
73952;BME280;62304;47.662;18.324;2022-08-19T04:14:46;99617.59;;;26.82;44.23
73952;BME280;62304;47.662;18.324;2022-08-19T04:17:49;99619.69;;;26.81;44.40
73952;BME280;62304;47.662;18.324;2022-08-19T04:20:53;99611.50;;;26.89;43.96
73952;BME280;62304;47.662;18.324;2022-08-19T04:23:58;99616.91;;;26.87;44.01
73952;BME280;62304;47.662;18.324;2022-08-19T04:27:01;99633.22;;;26.86;44.11
73952;BME280;62304;47.662;18.324;2022-08-19T04:30:05;99628.28;;;26.87;44.08
73952;BME280;62304;47.662;18.324;2022-08-19T04:33:10;99614.63;;;26.91;44.05
73952;BME280;62304;47.662;18.324;2022-08-19T04:36:18;99606.56;;;26.89;44.05
73952;BME280;62304;47.662;18.324;2022-08-19T04:39:30;99601.97;;;26.92;44.05
73952;BME280;62304;47.662;18.324;2022-08-19T04:42:52;99603.09;;;27.00;43.76
73952;BME280;62304;47.662;18.324;2022-08-19T04:45:56;99609.06;;;27.02;43.79
73952;BME280;62304;47.662;18.324;2022-08-19T04:49:03;99609.91;;;27.08;43.63
73952;BME280;62304;47.662;18.324;2022-08-19T04:52:14;99612.03;;;27.13;43.41
73952;BME280;62304;47.662;18.324;2022-08-19T04:55:17;99602.59;;;27.21;43.34
73952;BME280;62304;47.662;18.324;2022-08-19T04:58:20;99602.75;;;27.38;42.81
73952;BME280;62304;47.662;18.324;2022-08-19T05:01:28;99597.47;;;27.51;42.43
73952;BME280;62304;47.662;18.324;2022-08-19T05:04:32;99605.00;;;27.54;42.43
73952;BME280;62304;47.662;18.324;2022-08-19T05:07:35;99615.16;;;27.60;42.32
73952;BME280;62304;47.662;18.324;2022-08-19T05:10:39;99617.22;;;27.60;42.33
73952;BME280;62304;47.662;18.324;2022-08-19T05:13:44;99614.44;;;27.65;42.30
73952;BME280;62304;47.662;18.324;2022-08-19T05:16:47;99613.22;;;27.72;42.37
73952;BME280;62304;47.662;18.324;2022-08-19T05:19:50;99620.03;;;27.80;42.17
73952;BME280;62304;47.662;18.324;2022-08-19T05:23:12;99626.41;;;27.95;41.94
73952;BME280;62304;47.662;18.324;2022-08-19T05:26:25;99627.56;;;28.14;42.08
73952;BME280;62304;47.662;18.324;2022-08-19T05:29:29;99612.66;;;28.30;41.68
73952;BME280;62304;47.662;18.324;2022-08-19T05:32:39;99621.63;;;28.48;41.37
73952;BME280;62304;47.662;18.324;2022-08-19T05:35:41;99624.34;;;28.74;40.61
73952;BME280;62304;47.662;18.324;2022-08-19T05:38:45;99627.53;;;28.87;40.35
73952;BME280;62304;47.662;18.324;2022-08-19T05:41:53;99623.16;;;28.91;39.87
73952;BME280;62304;47.662;18.324;2022-08-19T05:44:57;99616.47;;;29.00;39.34
73952;BME280;62304;47.662;18.324;2022-08-19T05:48:00;99621.97;;;29.20;38.92
73952;BME280;62304;47.662;18.324;2022-08-19T05:51:07;99627.75;;;29.42;38.62
73952;BME280;62304;47.662;18.324;2022-08-19T05:54:23;99622.03;;;29.42;38.44
73952;BME280;62304;47.662;18.324;2022-08-19T05:57:26;99603.31;;;29.30;38.50
73952;BME280;62304;47.662;18.324;2022-08-19T06:00:31;99595.78;;;29.32;38.38
73952;BME280;62304;47.662;18.324;2022-08-19T06:03:35;99596.56;;;29.33;38.57
73952;BME280;62304;47.662;18.324;2022-08-19T06:06:41;99599.19;;;29.36;38.54
73952;BME280;62304;47.662;18.324;2022-08-19T06:09:44;99599.97;;;29.42;38.38
73952;BME280;62304;47.662;18.324;2022-08-19T06:13:02;99602.84;;;29.48;37.84
73952;BME280;62304;47.662;18.324;2022-08-19T06:16:05;99602.84;;;29.48;37.89
73952;BME280;62304;47.662;18.324;2022-08-19T06:19:12;99604.16;;;29.52;37.91
73952;BME280;62304;47.662;18.324;2022-08-19T06:22:16;99617.38;;;29.50;37.99
73952;BME280;62304;47.662;18.324;2022-08-19T06:25:19;99636.09;;;29.51;38.22
73952;BME280;62304;47.662;18.324;2022-08-19T06:28:22;99632.44;;;29.45;38.10
73952;BME280;62304;47.662;18.324;2022-08-19T06:31:27;99635.56;;;29.47;37.96
73952;BME280;62304;47.662;18.324;2022-08-19T06:34:32;99649.34;;;29.48;37.89
73952;BME280;62304;47.662;18.324;2022-08-19T06:37:36;99647.84;;;29.58;38.24
73952;BME280;62304;47.662;18.324;2022-08-19T06:40:45;99645.00;;;29.69;37.77
73952;BME280;62304;47.662;18.324;2022-08-19T06:43:47;99654.34;;;29.75;37.48
73952;BME280;62304;47.662;18.324;2022-08-19T06:46:55;99658.25;;;29.78;37.42
73952;BME280;62304;47.662;18.324;2022-08-19T06:49:59;99649.94;;;30.02;37.08
73952;BME280;62304;47.662;18.324;2022-08-19T06:53:07;99654.12;;;30.06;36.73
73952;BME280;62304;47.662;18.324;2022-08-19T06:56:09;99651.03;;;30.15;36.50
73952;BME280;62304;47.662;18.324;2022-08-19T06:59:17;99644.50;;;30.42;36.07
73952;BME280;62304;47.662;18.324;2022-08-19T07:02:21;99654.41;;;30.41;35.64
73952;BME280;62304;47.662;18.324;2022-08-19T07:05:24;99664.22;;;30.84;35.49
73952;BME280;62304;47.662;18.324;2022-08-19T07:08:27;99665.63;;;31.35;34.30
73952;BME280;62304;47.662;18.324;2022-08-19T07:11:32;99664.47;;;31.95;33.79
73952;BME280;62304;47.662;18.324;2022-08-19T07:14:36;99657.78;;;32.16;33.15
73952;BME280;62304;47.662;18.324;2022-08-19T07:17:43;99660.56;;;31.98;32.97
73952;BME280;62304;47.662;18.324;2022-08-19T07:20:47;99660.88;;;32.24;33.04
73952;BME280;62304;47.662;18.324;2022-08-19T07:23:51;99661.31;;;32.33;32.42
73952;BME280;62304;47.662;18.324;2022-08-19T07:26:56;99667.66;;;32.56;32.20
73952;BME280;62304;47.662;18.324;2022-08-19T07:30:04;99668.28;;;32.67;31.91
73952;BME280;62304;47.662;18.324;2022-08-19T07:33:12;99668.00;;;33.19;31.58
73952;BME280;62304;47.662;18.324;2022-08-19T07:36:18;99657.34;;;33.14;31.64
73952;BME280;62304;47.662;18.324;2022-08-19T07:39:30;99654.28;;;32.58;31.91
73952;BME280;62304;47.662;18.324;2022-08-19T07:42:38;99664.88;;;32.45;32.30
73952;BME280;62304;47.662;18.324;2022-08-19T07:45:40;99668.63;;;32.34;32.58
73952;BME280;62304;47.662;18.324;2022-08-19T07:48:45;99683.00;;;31.94;33.59
73952;BME280;62304;47.662;18.324;2022-08-19T07:51:56;99677.97;;;31.65;34.16
73952;BME280;62304;47.662;18.324;2022-08-19T07:55:00;99686.88;;;31.56;34.19
73952;BME280;62304;47.662;18.324;2022-08-19T07:58:06;99680.91;;;31.48;34.05
73952;BME280;62304;47.662;18.324;2022-08-19T08:01:12;99693.22;;;31.38;33.51
73952;BME280;62304;47.662;18.324;2022-08-19T08:04:16;99698.84;;;31.60;33.50
73952;BME280;62304;47.662;18.324;2022-08-19T08:07:38;99684.31;;;31.47;33.59
73952;BME280;62304;47.662;18.324;2022-08-19T08:11:00;99680.72;;;31.41;33.51
73952;BME280;62304;47.662;18.324;2022-08-19T08:14:02;99677.03;;;31.46;33.73
73952;BME280;62304;47.662;18.324;2022-08-19T08:17:08;99664.13;;;31.69;33.05
73952;BME280;62304;47.662;18.324;2022-08-19T08:20:14;99656.88;;;31.97;32.24
73952;BME280;62304;47.662;18.324;2022-08-19T08:23:17;99655.28;;;32.61;31.51
73952;BME280;62304;47.662;18.324;2022-08-19T08:26:27;99648.94;;;32.97;30.56
73952;BME280;62304;47.662;18.324;2022-08-19T08:29:35;99650.53;;;32.93;29.96
73952;BME280;62304;47.662;18.324;2022-08-19T08:32:38;99645.97;;;33.45;29.53
73952;BME280;62304;47.662;18.324;2022-08-19T08:35:42;99646.28;;;33.79;29.26
73952;BME280;62304;47.662;18.324;2022-08-19T08:38:45;99636.38;;;33.93;28.42
73952;BME280;62304;47.662;18.324;2022-08-19T08:45:18;99633.03;;;34.65;27.38
73952;BME280;62304;47.662;18.324;2022-08-19T08:48:52;99627.53;;;34.80;26.88
73952;BME280;62304;47.662;18.324;2022-08-19T08:52:03;99625.31;;;34.86;26.74
73952;BME280;62304;47.662;18.324;2022-08-19T08:55:10;99623.72;;;34.59;27.14
73952;BME280;62304;47.662;18.324;2022-08-19T08:58:20;99623.62;;;34.51;27.36
73952;BME280;62304;47.662;18.324;2022-08-19T09:01:27;99620.00;;;34.77;27.33
73952;BME280;62304;47.662;18.324;2022-08-19T09:04:34;99611.78;;;34.68;27.61
73952;BME280;62304;47.662;18.324;2022-08-19T09:08:10;99607.69;;;34.63;26.83
73952;BME280;62304;47.662;18.324;2022-08-19T09:14:50;99619.87;;;35.68;25.68
73952;BME280;62304;47.662;18.324;2022-08-19T09:17:53;99611.06;;;36.07;24.82
73952;BME280;62304;47.662;18.324;2022-08-19T09:20:57;99613.13;;;36.19;24.49
73952;BME280;62304;47.662;18.324;2022-08-19T09:24:01;99599.78;;;35.96;24.49
73952;BME280;62304;47.662;18.324;2022-08-19T09:27:05;99616.41;;;36.44;24.13
73952;BME280;62304;47.662;18.324;2022-08-19T09:30:24;99611.56;;;36.39;23.79
73952;BME280;62304;47.662;18.324;2022-08-19T09:33:28;99607.94;;;36.46;23.68
73952;BME280;62304;47.662;18.324;2022-08-19T09:36:32;99611.47;;;36.52;23.83
73952;BME280;62304;47.662;18.324;2022-08-19T09:39:39;99604.84;;;37.28;23.11
73952;BME280;62304;47.662;18.324;2022-08-19T09:42:44;99607.94;;;36.94;22.91
73952;BME280;62304;47.662;18.324;2022-08-19T09:45:54;99610.88;;;37.45;22.00
73952;BME280;62304;47.662;18.324;2022-08-19T09:48:59;99601.53;;;37.67;21.83
73952;BME280;62304;47.662;18.324;2022-08-19T09:52:09;99603.47;;;37.21;21.90
73952;BME280;62304;47.662;18.324;2022-08-19T09:55:14;99598.66;;;37.74;21.49
73952;BME280;62304;47.662;18.324;2022-08-19T09:58:19;99608.03;;;38.18;21.00
73952;BME280;62304;47.662;18.324;2022-08-19T10:01:30;99601.81;;;37.48;21.30
73952;BME280;62304;47.662;18.324;2022-08-19T10:04:33;99604.31;;;37.37;21.41
73952;BME280;62304;47.662;18.324;2022-08-19T10:07:55;99606.59;;;37.89;20.81
73952;BME280;62304;47.662;18.324;2022-08-19T10:11:08;99605.47;;;38.14;20.98
73952;BME280;62304;47.662;18.324;2022-08-19T10:14:31;99599.88;;;38.39;20.98
73952;BME280;62304;47.662;18.324;2022-08-19T10:17:35;99597.00;;;38.54;20.93
73952;BME280;62304;47.662;18.324;2022-08-19T10:20:38;99602.56;;;38.82;19.95
73952;BME280;62304;47.662;18.324;2022-08-19T10:23:45;99589.28;;;38.64;20.42
73952;BME280;62304;47.662;18.324;2022-08-19T10:26:53;99594.06;;;38.84;20.06
73952;BME280;62304;47.662;18.324;2022-08-19T10:30:01;99601.09;;;38.51;20.13
73952;BME280;62304;47.662;18.324;2022-08-19T10:33:05;99599.13;;;38.61;20.27
73952;BME280;62304;47.662;18.324;2022-08-19T10:36:20;99603.38;;;38.45;19.96
73952;BME280;62304;47.662;18.324;2022-08-19T10:39:24;99601.84;;;38.51;20.37
73952;BME280;62304;47.662;18.324;2022-08-19T10:42:33;99590.72;;;39.10;19.51
73952;BME280;62304;47.662;18.324;2022-08-19T10:45:35;99596.53;;;39.02;19.70
73952;BME280;62304;47.662;18.324;2022-08-19T10:48:54;99590.41;;;38.91;19.71
73952;BME280;62304;47.662;18.324;2022-08-19T10:51:57;99592.62;;;39.15;19.58
73952;BME280;62304;47.662;18.324;2022-08-19T10:55:24;99602.50;;;39.19;19.66
73952;BME280;62304;47.662;18.324;2022-08-19T10:58:45;99596.72;;;39.91;19.14
73952;BME280;62304;47.662;18.324;2022-08-19T11:01:49;99594.28;;;40.61;18.41
73952;BME280;62304;47.662;18.324;2022-08-19T11:04:56;99605.28;;;39.89;19.27
73952;BME280;62304;47.662;18.324;2022-08-19T11:08:14;99614.03;;;39.42;19.45
73952;BME280;62304;47.662;18.324;2022-08-19T11:11:25;99607.91;;;39.62;19.26
73952;BME280;62304;47.662;18.324;2022-08-19T11:14:28;99607.84;;;39.38;19.70
73952;BME280;62304;47.662;18.324;2022-08-19T11:17:35;99612.28;;;38.62;20.31
73952;BME280;62304;47.662;18.324;2022-08-19T11:20:39;99604.75;;;38.29;20.93
73952;BME280;62304;47.662;18.324;2022-08-19T11:23:43;99599.19;;;37.58;21.24
73952;BME280;62304;47.662;18.324;2022-08-19T11:26:47;99590.00;;;37.31;21.81
73952;BME280;62304;47.662;18.324;2022-08-19T11:29:51;99599.72;;;37.49;21.51
73952;BME280;62304;47.662;18.324;2022-08-19T11:32:55;99593.34;;;38.46;20.62
73952;BME280;62304;47.662;18.324;2022-08-19T11:35:58;99584.72;;;39.15;19.92
73952;BME280;62304;47.662;18.324;2022-08-19T11:39:06;99587.19;;;39.34;19.47
73952;BME280;62304;47.662;18.324;2022-08-19T11:42:09;99588.38;;;39.16;19.50
73952;BME280;62304;47.662;18.324;2022-08-19T11:45:30;99578.66;;;39.68;19.39
73952;BME280;62304;47.662;18.324;2022-08-19T11:48:34;99577.56;;;39.09;19.41
73952;BME280;62304;47.662;18.324;2022-08-19T11:51:39;99575.44;;;39.09;19.71
73952;BME280;62304;47.662;18.324;2022-08-19T11:54:44;99577.75;;;39.11;19.83
73952;BME280;62304;47.662;18.324;2022-08-19T11:57:47;99591.00;;;38.29;20.57
73952;BME280;62304;47.662;18.324;2022-08-19T12:00:51;99592.84;;;37.74;21.36
73952;BME280;62304;47.662;18.324;2022-08-19T12:03:55;99586.44;;;37.61;21.90
73952;BME280;62304;47.662;18.324;2022-08-19T12:06:59;99596.56;;;37.32;22.04
73952;BME280;62304;47.662;18.324;2022-08-19T12:10:02;99589.91;;;37.09;22.37
73952;BME280;62304;47.662;18.324;2022-08-19T12:13:05;99588.16;;;36.78;23.15
73952;BME280;62304;47.662;18.324;2022-08-19T12:16:14;99587.34;;;36.70;23.42
73952;BME280;62304;47.662;18.324;2022-08-19T12:19:18;99596.00;;;36.42;23.86
73952;BME280;62304;47.662;18.324;2022-08-19T12:22:24;99603.19;;;35.87;24.45
73952;BME280;62304;47.662;18.324;2022-08-19T12:25:26;99612.47;;;35.59;25.20
73952;BME280;62304;47.662;18.324;2022-08-19T12:28:30;99629.38;;;35.16;26.29
73952;BME280;62304;47.662;18.324;2022-08-19T12:31:33;99628.06;;;34.21;29.84
73952;BME280;62304;47.662;18.324;2022-08-19T12:34:37;99641.38;;;33.74;30.75
73952;BME280;62304;47.662;18.324;2022-08-19T12:37:40;99658.16;;;33.33;31.97
73952;BME280;62304;47.662;18.324;2022-08-19T12:40:46;99666.09;;;33.03;32.95
73952;BME280;62304;47.662;18.324;2022-08-19T12:43:49;99658.84;;;32.48;34.19
73952;BME280;62304;47.662;18.324;2022-08-19T12:46:55;99672.47;;;32.07;36.15
73952;BME280;62304;47.662;18.324;2022-08-19T12:49:58;99675.97;;;31.49;38.94
73952;BME280;62304;47.662;18.324;2022-08-19T12:53:04;99685.69;;;31.29;39.13
73952;BME280;62304;47.662;18.324;2022-08-19T12:56:08;99691.53;;;31.02;41.15
73952;BME280;62304;47.662;18.324;2022-08-19T12:59:14;99688.69;;;30.85;42.51
73952;BME280;62304;47.662;18.324;2022-08-19T13:02:19;99692.66;;;30.71;41.52
73952;BME280;62304;47.662;18.324;2022-08-19T13:05:26;99729.31;;;30.73;41.30
73952;BME280;62304;47.662;18.324;2022-08-19T13:08:29;99746.25;;;30.76;40.29
73952;BME280;62304;47.662;18.324;2022-08-19T13:11:36;99754.06;;;30.76;40.21
73952;BME280;62304;47.662;18.324;2022-08-19T13:14:40;99757.16;;;30.89;39.87
73952;BME280;62304;47.662;18.324;2022-08-19T13:17:43;99741.53;;;30.95;39.37
73952;BME280;62304;47.662;18.324;2022-08-19T13:20:45;99753.53;;;30.99;39.39
73952;BME280;62304;47.662;18.324;2022-08-19T13:23:54;99758.47;;;30.88;39.47
73952;BME280;62304;47.662;18.324;2022-08-19T13:26:57;99757.16;;;30.94;39.23
73952;BME280;62304;47.662;18.324;2022-08-19T13:30:03;99754.81;;;30.87;39.38
73952;BME280;62304;47.662;18.324;2022-08-19T13:33:24;99759.25;;;30.88;39.47
73952;BME280;62304;47.662;18.324;2022-08-19T13:36:29;99750.09;;;31.01;40.30
73952;BME280;62304;47.662;18.324;2022-08-19T13:39:33;99758.16;;;31.13;38.86
73952;BME280;62304;47.662;18.324;2022-08-19T13:42:36;99765.88;;;31.51;37.96
73952;BME280;62304;47.662;18.324;2022-08-19T13:45:39;99773.31;;;31.82;36.10
73952;BME280;62304;47.662;18.324;2022-08-19T13:48:42;99774.81;;;31.94;34.68
73952;BME280;62304;47.662;18.324;2022-08-19T13:51:45;99771.19;;;31.88;31.55
73952;BME280;62304;47.662;18.324;2022-08-19T13:54:48;99770.38;;;31.93;30.65
73952;BME280;62304;47.662;18.324;2022-08-19T13:57:54;99762.81;;;31.95;29.61
73952;BME280;62304;47.662;18.324;2022-08-19T14:00:59;99765.66;;;32.01;30.17
73952;BME280;62304;47.662;18.324;2022-08-19T14:04:03;99769.34;;;31.96;30.28
73952;BME280;62304;47.662;18.324;2022-08-19T14:07:06;99748.06;;;32.56;29.57
73952;BME280;62304;47.662;18.324;2022-08-19T14:10:11;99736.31;;;32.83;29.25
73952;BME280;62304;47.662;18.324;2022-08-19T14:13:17;99727.69;;;32.54;29.66
73952;BME280;62304;47.662;18.324;2022-08-19T14:16:20;99716.41;;;32.32;29.93
73952;BME280;62304;47.662;18.324;2022-08-19T14:19:27;99718.81;;;32.17;30.12
73952;BME280;62304;47.662;18.324;2022-08-19T14:22:31;99715.12;;;31.87;30.44
73952;BME280;62304;47.662;18.324;2022-08-19T14:25:34;99715.25;;;31.65;30.56
73952;BME280;62304;47.662;18.324;2022-08-19T14:28:38;99721.78;;;31.60;30.75
73952;BME280;62304;47.662;18.324;2022-08-19T14:31:43;99730.72;;;31.40;31.07
73952;BME280;62304;47.662;18.324;2022-08-19T14:34:47;99723.81;;;31.02;30.93
73952;BME280;62304;47.662;18.324;2022-08-19T14:37:50;99709.25;;;30.84;31.67
73952;BME280;62304;47.662;18.324;2022-08-19T14:41:17;99687.13;;;30.79;31.56
73952;BME280;62304;47.662;18.324;2022-08-19T14:44:21;99693.94;;;30.65;32.23
73952;BME280;62304;47.662;18.324;2022-08-19T14:47:25;99682.72;;;30.56;32.31
73952;BME280;62304;47.662;18.324;2022-08-19T14:50:30;99682.47;;;30.54;32.37
73952;BME280;62304;47.662;18.324;2022-08-19T14:53:33;99675.72;;;30.46;32.91
73952;BME280;62304;47.662;18.324;2022-08-19T14:56:39;99667.13;;;30.35;32.95
73952;BME280;62304;47.662;18.324;2022-08-19T14:59:43;99665.59;;;30.39;32.99
73952;BME280;62304;47.662;18.324;2022-08-19T15:02:46;99667.66;;;30.39;33.27
73952;BME280;62304;47.662;18.324;2022-08-19T15:05:49;99658.31;;;30.33;33.33
73952;BME280;62304;47.662;18.324;2022-08-19T15:08:53;99665.31;;;30.15;33.78
73952;BME280;62304;47.662;18.324;2022-08-19T15:11:56;99672.06;;;29.96;34.05
73952;BME280;62304;47.662;18.324;2022-08-19T15:15:01;99691.50;;;29.59;35.19
73952;BME280;62304;47.662;18.324;2022-08-19T15:18:04;99699.19;;;29.42;36.02
73952;BME280;62304;47.662;18.324;2022-08-19T15:21:07;99736.84;;;29.35;35.99
73952;BME280;62304;47.662;18.324;2022-08-19T15:24:11;99747.91;;;29.11;37.13
73952;BME280;62304;47.662;18.324;2022-08-19T15:27:15;99739.16;;;28.89;38.22
73952;BME280;62304;47.662;18.324;2022-08-19T15:30:23;99727.53;;;28.56;43.33
73952;BME280;62304;47.662;18.324;2022-08-19T15:33:25;99735.78;;;28.23;42.62
73952;BME280;62304;47.662;18.324;2022-08-19T15:36:29;99745.84;;;27.93;45.85
73952;BME280;62304;47.662;18.324;2022-08-19T15:39:32;99749.87;;;27.61;46.94
73952;BME280;62304;47.662;18.324;2022-08-19T15:42:36;99740.13;;;26.93;56.81
73952;BME280;62304;47.662;18.324;2022-08-19T15:45:39;99752.91;;;26.48;57.42
73952;BME280;62304;47.662;18.324;2022-08-19T15:48:50;99746.72;;;26.06;62.69
73952;BME280;62304;47.662;18.324;2022-08-19T15:52:00;99728.84;;;25.77;68.79
73952;BME280;62304;47.662;18.324;2022-08-19T15:55:04;99712.06;;;25.64;65.60
73952;BME280;62304;47.662;18.324;2022-08-19T15:58:11;99698.94;;;25.52;64.40
73952;BME280;62304;47.662;18.324;2022-08-19T16:01:38;99671.19;;;25.33;65.89
73952;BME280;62304;47.662;18.324;2022-08-19T16:05:01;99666.06;;;25.22;67.00
73952;BME280;62304;47.662;18.324;2022-08-19T16:08:24;99643.75;;;24.92;69.58
73952;BME280;62304;47.662;18.324;2022-08-19T16:11:31;99641.50;;;24.96;68.60
73952;BME280;62304;47.662;18.324;2022-08-19T16:14:41;99651.03;;;24.84;68.81
73952;BME280;62304;47.662;18.324;2022-08-19T16:17:44;99645.13;;;24.73;73.77
73952;BME280;62304;47.662;18.324;2022-08-19T16:20:58;99635.09;;;24.63;75.50
73952;BME280;62304;47.662;18.324;2022-08-19T16:24:04;99639.00;;;24.42;75.78